PH-0168 weather

CLOSED Porac Airfield
Babo Sacan, Pampanga Province, Philippines

Public forecast

Using degrees Celsius for public forecast. Weather courtesy of forecast.io.

Closest aviation weather report (METAR) to Porac Airfield

Report is more than 6 hours old.

Closest report is Diosdado Macapagal International Airport, 6.8 nm (12.7 km) N. Retrieved 2020/07/14 05:00 UTC (22 days ago):

RPLC 140500Z 18004KT 8000 SCT020 BKN100 33/25 Q1008 NOSIG RMK A2977

Closest aviation forecast (TAF) to Porac Airfield

Forecast is more than 12 hours old.

Closest forecast is Diosdado Macapagal International Airport, 6.8 nm (12.7 km) N. Retrieved 2020/07/14 06:04 UTC (22 days ago):

TAF RPLC 140500Z 1406/1512 35006KT 9000 SCT020 BKN300 TX33/1406Z TN25/1422Z TEMPO 1406/1412 18008KT 6000 TS -SHRA FEW015CB SCT020 BKN100